sensor_id;sensor_type;location;lat;lon;timestamp;pressure;altitude;pressure_sealevel;temperature
15453;BMP280;7827;53.594;9.938;2023-07-30T00:00:44;26591.41;;;-135.29
15453;BMP280;7827;53.594;9.938;2023-07-30T00:03:12;26676.44;;;-135.29
15453;BMP280;7827;53.594;9.938;2023-07-30T00:05:41;26473.53;;;-135.29
15453;BMP280;7827;53.594;9.938;2023-07-30T00:08:09;26450.34;;;-135.29
15453;BMP280;7827;53.594;9.938;2023-07-30T00:10:39;26516.03;;;-135.29
15453;BMP280;7827;53.594;9.938;2023-07-30T00:13:07;26487.06;;;-135.29
15453;BMP280;7827;53.594;9.938;2023-07-30T00:15:35;26581.75;;;-135.29
15453;BMP280;7827;53.594;9.938;2023-07-30T00:18:04;26734.41;;;-135.29
15453;BMP280;7827;53.594;9.938;2023-07-30T00:20:34;26811.72;;;-135.29
15453;BMP280;7827;53.594;9.938;2023-07-30T00:23:03;27091.94;;;-135.29
15453;BMP280;7827;53.594;9.938;2023-07-30T00:25:31;27115.13;;;-135.29
15453;BMP280;7827;53.594;9.938;2023-07-30T00:28:01;26728.59;;;-135.29
15453;BMP280;7827;53.594;9.938;2023-07-30T00:30:29;26983.72;;;-135.29
15453;BMP280;7827;53.594;9.938;2023-07-30T00:32:57;26765.31;;;-135.29
15453;BMP280;7827;53.594;9.938;2023-07-30T00:35:26;26865.81;;;-135.29
15453;BMP280;7827;53.594;9.938;2023-07-30T00:37:54;26912.19;;;-135.29
15453;BMP280;7827;53.594;9.938;2023-07-30T00:40:23;26823.31;;;-135.29
15453;BMP280;7827;53.594;9.938;2023-07-30T00:42:51;26989.50;;;-135.29
15453;BMP280;7827;53.594;9.938;2023-07-30T00:45:21;26900.59;;;-135.29
15453;BMP280;7827;53.594;9.938;2023-07-30T00:47:50;26800.13;;;-135.29
15453;BMP280;7827;53.594;9.938;2023-07-30T00:50:18;26763.41;;;-135.29
15453;BMP280;7827;53.594;9.938;2023-07-30T00:52:47;26722.81;;;-135.29
15453;BMP280;7827;53.594;9.938;2023-07-30T00:55:15;26879.34;;;-135.29
15453;BMP280;7827;53.594;9.938;2023-07-30T00:57:45;26583.69;;;-135.29
15453;BMP280;7827;53.594;9.938;2023-07-30T01:00:14;26643.59;;;-135.29
15453;BMP280;7827;53.594;9.938;2023-07-30T01:02:44;26620.41;;;-135.29
15453;BMP280;7827;53.594;9.938;2023-07-30T01:05:12;26916.06;;;-135.29
15453;BMP280;7827;53.594;9.938;2023-07-30T01:07:41;26834.91;;;-135.29
15453;BMP280;7827;53.594;9.938;2023-07-30T01:10:10;26916.06;;;-135.29
15453;BMP280;7827;53.594;9.938;2023-07-30T01:12:39;26858.09;;;-135.29
15453;BMP280;7827;53.594;9.938;2023-07-30T01:15:10;26815.56;;;-135.29
15453;BMP280;7827;53.594;9.938;2023-07-30T01:17:39;26834.91;;;-135.29
15453;BMP280;7827;53.594;9.938;2023-07-30T01:20:11;26662.91;;;-135.29
15453;BMP280;7827;53.594;9.938;2023-07-30T01:22:41;26765.31;;;-135.29
15453;BMP280;7827;53.594;9.938;2023-07-30T01:25:09;26628.13;;;-135.29
15453;BMP280;7827;53.594;9.938;2023-07-30T01:27:44;26792.38;;;-135.29
15453;BMP280;7827;53.594;9.938;2023-07-30T01:30:21;26624.25;;;-135.29
15453;BMP280;7827;53.594;9.938;2023-07-30T01:32:51;26819.44;;;-135.29
15453;BMP280;7827;53.594;9.938;2023-07-30T01:35:22;26821.38;;;-135.29
15453;BMP280;7827;53.594;9.938;2023-07-30T01:37:54;26780.78;;;-135.29
15453;BMP280;7827;53.594;9.938;2023-07-30T01:40:23;26649.38;;;-135.29
15453;BMP280;7827;53.594;9.938;2023-07-30T01:42:51;26452.28;;;-135.29
15453;BMP280;7827;53.594;9.938;2023-07-30T01:45:20;26819.44;;;-135.29
15453;BMP280;7827;53.594;9.938;2023-07-30T01:47:48;26738.28;;;-135.29
15453;BMP280;7827;53.594;9.938;2023-07-30T01:50:17;26900.59;;;-135.29
15453;BMP280;7827;53.594;9.938;2023-07-30T01:52:45;26925.72;;;-135.29
15453;BMP280;7827;53.594;9.938;2023-07-30T01:55:15;26881.28;;;-135.29
15453;BMP280;7827;53.594;9.938;2023-07-30T01:57:44;27047.50;;;-135.29
15453;BMP280;7827;53.594;9.938;2023-07-30T02:00:12;27041.69;;;-135.29
15453;BMP280;7827;53.594;9.938;2023-07-30T02:02:41;27101.59;;;-135.29
15453;BMP280;7827;53.594;9.938;2023-07-30T02:05:09;27379.94;;;-135.29
15453;BMP280;7827;53.594;9.938;2023-07-30T02:07:40;27393.47;;;-135.29
15453;BMP280;7827;53.594;9.938;2023-07-30T02:10:09;27484.31;;;-135.29
15453;BMP280;7827;53.594;9.938;2023-07-30T02:12:39;27671.81;;;-135.29
15453;BMP280;7827;53.594;9.938;2023-07-30T02:15:08;27550.03;;;-135.29
15453;BMP280;7827;53.594;9.938;2023-07-30T02:17:36;27511.38;;;-135.29
15453;BMP280;7827;53.594;9.938;2023-07-30T02:20:07;27685.38;;;-135.29
15453;BMP280;7827;53.594;9.938;2023-07-30T02:22:36;27791.69;;;-135.29
15453;BMP280;7827;53.594;9.938;2023-07-30T02:25:05;27704.69;;;-135.29
15453;BMP280;7827;53.594;9.938;2023-07-30T02:27:34;27888.34;;;-135.29
15453;BMP280;7827;53.594;9.938;2023-07-30T02:30:05;27762.69;;;-135.29
15453;BMP280;7827;53.594;9.938;2023-07-30T02:32:34;27693.09;;;-135.29
15453;BMP280;7827;53.594;9.938;2023-07-30T02:35:02;27944.41;;;-135.29
15453;BMP280;7827;53.594;9.938;2023-07-30T02:37:31;27695.03;;;-135.29
15453;BMP280;7827;53.594;9.938;2023-07-30T02:40:00;27944.41;;;-135.29
15453;BMP280;7827;53.594;9.938;2023-07-30T02:42:31;27811.03;;;-135.29
15453;BMP280;7827;53.594;9.938;2023-07-30T02:45:00;27936.69;;;-135.29
15453;BMP280;7827;53.594;9.938;2023-07-30T02:47:29;28122.28;;;-135.29
15453;BMP280;7827;53.594;9.938;2023-07-30T02:49:58;28073.97;;;-135.29
15453;BMP280;7827;53.594;9.938;2023-07-30T02:52:26;28195.75;;;-135.29
15453;BMP280;7827;53.594;9.938;2023-07-30T02:54:54;28099.09;;;-135.29
15453;BMP280;7827;53.594;9.938;2023-07-30T02:57:23;28280.84;;;-135.29
15453;BMP280;7827;53.594;9.938;2023-07-30T02:59:51;28288.56;;;-135.29
15453;BMP280;7827;53.594;9.938;2023-07-30T03:02:20;28010.16;;;-135.29
15453;BMP280;7827;53.594;9.938;2023-07-30T03:04:50;28025.63;;;-135.29
15453;BMP280;7827;53.594;9.938;2023-07-30T03:07:21;28019.81;;;-135.29
15453;BMP280;7827;53.594;9.938;2023-07-30T03:09:49;28126.16;;;-135.29
15453;BMP280;7827;53.594;9.938;2023-07-30T03:12:18;28201.56;;;-135.29
15453;BMP280;7827;53.594;9.938;2023-07-30T03:14:46;28427.78;;;-135.29
15453;BMP280;7827;53.594;9.938;2023-07-30T03:17:14;28427.78;;;-135.29
15453;BMP280;7827;53.594;9.938;2023-07-30T03:19:43;28522.53;;;-135.29
15453;BMP280;7827;53.594;9.938;2023-07-30T03:22:12;28420.06;;;-135.29
15453;BMP280;7827;53.594;9.938;2023-07-30T03:24:41;28365.91;;;-135.29
15453;BMP280;7827;53.594;9.938;2023-07-30T03:27:09;28520.63;;;-135.29
15453;BMP280;7827;53.594;9.938;2023-07-30T03:29:38;28425.88;;;-135.29
15453;BMP280;7827;53.594;9.938;2023-07-30T03:32:07;28464.53;;;-135.29
15453;BMP280;7827;53.594;9.938;2023-07-30T03:34:36;28362.06;;;-135.29
15453;BMP280;7827;53.594;9.938;2023-07-30T03:37:06;28364.00;;;-135.29
15453;BMP280;7827;53.594;9.938;2023-07-30T03:39:35;28336.91;;;-135.29
15453;BMP280;7827;53.594;9.938;2023-07-30T03:42:05;28389.13;;;-135.29
15453;BMP280;7827;53.594;9.938;2023-07-30T03:44:35;28613.44;;;-135.29
15453;BMP280;7827;53.594;9.938;2023-07-30T03:47:03;28191.91;;;-135.29
15453;BMP280;7827;53.594;9.938;2023-07-30T03:49:32;28348.50;;;-135.29
15453;BMP280;7827;53.594;9.938;2023-07-30T03:52:01;28298.25;;;-135.29
15453;BMP280;7827;53.594;9.938;2023-07-30T03:54:29;28352.38;;;-135.29
15453;BMP280;7827;53.594;9.938;2023-07-30T03:56:59;28300.19;;;-135.29
15453;BMP280;7827;53.594;9.938;2023-07-30T03:59:27;28472.28;;;-135.29
15453;BMP280;7827;53.594;9.938;2023-07-30T04:01:56;28354.31;;;-135.29
15453;BMP280;7827;53.594;9.938;2023-07-30T04:04:25;28464.53;;;-135.29
15453;BMP280;7827;53.594;9.938;2023-07-30T04:06:53;28360.13;;;-135.29
15453;BMP280;7827;53.594;9.938;2023-07-30T04:09:21;28176.44;;;-135.29
15453;BMP280;7827;53.594;9.938;2023-07-30T04:11:50;28501.28;;;-135.29
15453;BMP280;7827;53.594;9.938;2023-07-30T04:14:20;28276.97;;;-135.29
15453;BMP280;7827;53.594;9.938;2023-07-30T04:16:49;28070.09;;;-135.29
15453;BMP280;7827;53.594;9.938;2023-07-30T04:19:17;27812.94;;;-135.29
15453;BMP280;7827;53.594;9.938;2023-07-30T04:21:45;28048.81;;;-135.29
15453;BMP280;7827;53.594;9.938;2023-07-30T04:24:14;27857.41;;;-135.29
15453;BMP280;7827;53.594;9.938;2023-07-30T04:26:42;27855.47;;;-135.29
15453;BMP280;7827;53.594;9.938;2023-07-30T04:29:10;27696.97;;;-135.29
15453;BMP280;7827;53.594;9.938;2023-07-30T04:31:42;27480.44;;;-135.29
15453;BMP280;7827;53.594;9.938;2023-07-30T04:34:10;27173.13;;;-135.29
15453;BMP280;7827;53.594;9.938;2023-07-30T04:36:39;26979.84;;;-135.29
15453;BMP280;7827;53.594;9.938;2023-07-30T04:39:07;26628.13;;;-135.29
15453;BMP280;7827;53.594;9.938;2023-07-30T04:41:36;26512.19;;;-135.29
15453;BMP280;7827;53.594;9.938;2023-07-30T04:44:04;26318.94;;;-135.29
15453;BMP280;7827;53.594;9.938;2023-07-30T04:46:33;26305.44;;;-135.29
15453;BMP280;7827;53.594;9.938;2023-07-30T04:49:04;26089.03;;;-135.29
15453;BMP280;7827;53.594;9.938;2023-07-30T04:51:32;25969.25;;;-135.29
15453;BMP280;7827;53.594;9.938;2023-07-30T04:54:01;26007.88;;;-135.29
15453;BMP280;7827;53.594;9.938;2023-07-30T04:56:29;26123.81;;;-135.29
15453;BMP280;7827;53.594;9.938;2023-07-30T04:58:57;25853.31;;;-135.29
15453;BMP280;7827;53.594;9.938;2023-07-30T05:01:26;25936.41;;;-135.29
15453;BMP280;7827;53.594;9.938;2023-07-30T05:03:54;25803.09;;;-135.29
15453;BMP280;7827;53.594;9.938;2023-07-30T05:06:24;25955.72;;;-135.29
15453;BMP280;7827;53.594;9.938;2023-07-30T05:08:52;25685.25;;;-135.29
15453;BMP280;7827;53.594;9.938;2023-07-30T05:11:21;25501.75;;;-135.29
15453;BMP280;7827;53.594;9.938;2023-07-30T05:13:50;25269.97;;;-135.29
15453;BMP280;7827;53.594;9.938;2023-07-30T05:16:18;25598.34;;;-135.29
15453;BMP280;7827;53.594;9.938;2023-07-30T05:18:47;25737.41;;;-135.29
15453;BMP280;7827;53.594;9.938;2023-07-30T05:21:15;25694.91;;;-135.29
15453;BMP280;7827;53.594;9.938;2023-07-30T05:23:45;25988.56;;;-135.29
15453;BMP280;7827;53.594;9.938;2023-07-30T05:26:13;26152.78;;;-135.29
15453;BMP280;7827;53.594;9.938;2023-07-30T05:28:42;26193.34;;;-135.29
15453;BMP280;7827;53.594;9.938;2023-07-30T05:31:10;26581.75;;;-135.29
15453;BMP280;7827;53.594;9.938;2023-07-30T05:33:38;26274.50;;;-135.29
15453;BMP280;7827;53.594;9.938;2023-07-30T05:36:07;26489.00;;;-135.29
15453;BMP280;7827;53.594;9.938;2023-07-30T05:38:35;26380.78;;;-135.29
15453;BMP280;7827;53.594;9.938;2023-07-30T05:41:05;26494.78;;;-135.29
15453;BMP280;7827;53.594;9.938;2023-07-30T05:43:33;26657.09;;;-135.29
15453;BMP280;7827;53.594;9.938;2023-07-30T05:46:02;26647.44;;;-135.29
15453;BMP280;7827;53.594;9.938;2023-07-30T05:48:30;26974.03;;;-135.29
15453;BMP280;7827;53.594;9.938;2023-07-30T05:50:58;26815.56;;;-135.29
15453;BMP280;7827;53.594;9.938;2023-07-30T05:53:27;26678.38;;;-135.29
15453;BMP280;7827;53.594;9.938;2023-07-30T05:55:55;26662.91;;;-135.29
15453;BMP280;7827;53.594;9.938;2023-07-30T05:58:25;26570.16;;;-135.29
15453;BMP280;7827;53.594;9.938;2023-07-30T06:00:53;26398.16;;;-135.29
15453;BMP280;7827;53.594;9.938;2023-07-30T06:03:22;26500.59;;;-135.29
15453;BMP280;7827;53.594;9.938;2023-07-30T06:05:50;26624.25;;;-135.29
15453;BMP280;7827;53.594;9.938;2023-07-30T06:08:18;26322.81;;;-135.29
15453;BMP280;7827;53.594;9.938;2023-07-30T06:10:47;25754.81;;;-135.29
15453;BMP280;7827;53.594;9.938;2023-07-30T06:13:15;25606.06;;;-135.29
15453;BMP280;7827;53.594;9.938;2023-07-30T06:15:45;25509.47;;;-135.29
15453;BMP280;7827;53.594;9.938;2023-07-30T06:18:14;25528.78;;;-135.29
15453;BMP280;7827;53.594;9.938;2023-07-30T06:20:42;25459.25;;;-135.29
15453;BMP280;7827;53.594;9.938;2023-07-30T06:23:10;25258.38;;;-135.29
15453;BMP280;7827;53.594;9.938;2023-07-30T06:25:39;24856.66;;;-135.29
15453;BMP280;7827;53.594;9.938;2023-07-30T06:28:07;25134.75;;;-135.29
15453;BMP280;7827;53.594;9.938;2023-07-30T06:30:35;25575.16;;;-135.29
15453;BMP280;7827;53.594;9.938;2023-07-30T06:33:07;25636.97;;;-135.29
15453;BMP280;7827;53.594;9.938;2023-07-30T06:35:36;25888.09;;;-135.29
15453;BMP280;7827;53.594;9.938;2023-07-30T06:38:07;25739.34;;;-135.29
15453;BMP280;7827;53.594;9.938;2023-07-30T06:40:36;25992.44;;;-135.29
15453;BMP280;7827;53.594;9.938;2023-07-30T06:43:04;25901.63;;;-135.29
15453;BMP280;7827;53.594;9.938;2023-07-30T06:45:32;26185.63;;;-135.29
15453;BMP280;7827;53.594;9.938;2023-07-30T06:48:01;26071.63;;;-135.29
15453;BMP280;7827;53.594;9.938;2023-07-30T06:50:31;26060.03;;;-135.29
15453;BMP280;7827;53.594;9.938;2023-07-30T06:52:59;25586.75;;;-135.29
15453;BMP280;7827;53.594;9.938;2023-07-30T06:55:28;25903.56;;;-135.29
15453;BMP280;7827;53.594;9.938;2023-07-30T06:57:56;25737.41;;;-135.29
15453;BMP280;7827;53.594;9.938;2023-07-30T07:00:24;25760.59;;;-135.29
15453;BMP280;7827;53.594;9.938;2023-07-30T07:02:53;25559.69;;;-135.29
15453;BMP280;7827;53.594;9.938;2023-07-30T07:05:22;25776.06;;;-135.29
15453;BMP280;7827;53.594;9.938;2023-07-30T07:07:51;25691.06;;;-135.29
15453;BMP280;7827;53.594;9.938;2023-07-30T07:10:20;25455.38;;;-135.29
15453;BMP280;7827;53.594;9.938;2023-07-30T07:12:48;24553.47;;;-135.29
15453;BMP280;7827;53.594;9.938;2023-07-30T07:15:17;25015.03;;;-135.29
15453;BMP280;7827;53.594;9.938;2023-07-30T07:17:45;24547.69;;;-135.29
15453;BMP280;7827;53.594;9.938;2023-07-30T07:20:13;24725.34;;;-135.29
15453;BMP280;7827;53.594;9.938;2023-07-30T07:22:42;24532.25;;;-135.29
15453;BMP280;7827;53.594;9.938;2023-07-30T07:25:11;24435.69;;;-135.29
15453;BMP280;7827;53.594;9.938;2023-07-30T07:27:40;24169.25;;;-135.29
15453;BMP280;7827;53.594;9.938;2023-07-30T07:30:09;23580.44;;;-135.29
15453;BMP280;7827;53.594;9.938;2023-07-30T07:32:38;23779.28;;;-135.29
15453;BMP280;7827;53.594;9.938;2023-07-30T07:35:08;23841.03;;;-135.29
15453;BMP280;7827;53.594;9.938;2023-07-30T07:37:36;23068.97;;;-135.29
15453;BMP280;7827;53.594;9.938;2023-07-30T07:40:07;23447.25;;;-135.29
15453;BMP280;7827;53.594;9.938;2023-07-30T07:42:38;23327.59;;;-135.29
15453;BMP280;7827;53.594;9.938;2023-07-30T07:45:07;23420.22;;;-135.29
15453;BMP280;7827;53.594;9.938;2023-07-30T07:47:36;23362.31;;;-135.29
15453;BMP280;7827;53.594;9.938;2023-07-30T07:50:06;23275.47;;;-135.29
15453;BMP280;7827;53.594;9.938;2023-07-30T07:52:34;22914.56;;;-135.29
15453;BMP280;7827;53.594;9.938;2023-07-30T07:55:04;23159.66;;;-135.29
15453;BMP280;7827;53.594;9.938;2023-07-30T07:57:32;22389.72;;;-135.29
15453;BMP280;7827;53.594;9.938;2023-07-30T08:00:07;20916.00;;;-135.29
15453;BMP280;7827;53.594;9.938;2023-07-30T08:02:40;19969.31;;;-135.29
15453;BMP280;7827;53.594;9.938;2023-07-30T08:05:09;19907.63;;;-135.29
15453;BMP280;7827;53.594;9.938;2023-07-30T08:07:38;21344.16;;;-135.29
15453;BMP280;7827;53.594;9.938;2023-07-30T08:10:07;21444.44;;;-135.29
15453;BMP280;7827;53.594;9.938;2023-07-30T08:12:36;21942.13;;;-135.29
15453;BMP280;7827;53.594;9.938;2023-07-30T08:15:07;21616.13;;;-135.29
15453;BMP280;7827;53.594;9.938;2023-07-30T08:17:35;21236.16;;;-135.29
15453;BMP280;7827;53.594;9.938;2023-07-30T08:20:05;21884.25;;;-135.29
15453;BMP280;7827;53.594;9.938;2023-07-30T08:22:33;21938.25;;;-135.29
15453;BMP280;7827;53.594;9.938;2023-07-30T08:25:02;21159.00;;;-135.29
15453;BMP280;7827;53.594;9.938;2023-07-30T08:27:30;20854.31;;;-135.29
15453;BMP280;7827;53.594;9.938;2023-07-30T08:29:59;21305.56;;;-135.29
15453;BMP280;7827;53.594;9.938;2023-07-30T08:32:28;21027.84;;;-135.29
15453;BMP280;7827;53.594;9.938;2023-07-30T08:34:57;20912.16;;;-135.29
15453;BMP280;7827;53.594;9.938;2023-07-30T08:37:25;20379.97;;;-135.29
15453;BMP280;7827;53.594;9.938;2023-07-30T08:39:53;19075.00;;;-135.29
15453;BMP280;7827;53.594;9.938;2023-07-30T08:42:22;18290.75;;;-135.29
15453;BMP280;7827;53.594;9.938;2023-07-30T08:44:51;18733.91;;;-135.29
15453;BMP280;7827;53.594;9.938;2023-07-30T08:47:19;18267.63;;;-135.29
15453;BMP280;7827;53.594;9.938;2023-07-30T08:49:49;18333.16;;;-135.29
15453;BMP280;7827;53.594;9.938;2023-07-30T08:52:20;18595.19;;;-135.29
15453;BMP280;7827;53.594;9.938;2023-07-30T08:54:49;19007.53;;;-135.29
15453;BMP280;7827;53.594;9.938;2023-07-30T08:57:20;18417.91;;;-135.29
15453;BMP280;7827;53.594;9.938;2023-07-30T09:00:01;17953.63;;;-135.29
15453;BMP280;7827;53.594;9.938;2023-07-30T09:02:37;17897.75;;;-135.29
15453;BMP280;7827;53.594;9.938;2023-07-30T09:05:08;17110.03;;;-135.29
15453;BMP280;7827;53.594;9.938;2023-07-30T09:07:37;16617.06;;;-135.29
15453;BMP280;7827;53.594;9.938;2023-07-30T09:10:06;16370.63;;;-135.29
15453;BMP280;7827;53.594;9.938;2023-07-30T09:12:36;15877.81;;;-135.29
15453;BMP280;7827;53.594;9.938;2023-07-30T09:15:07;16370.63;;;-135.29
15453;BMP280;7827;53.594;9.938;2023-07-30T09:17:36;16617.06;;;-135.29
15453;BMP280;7827;53.594;9.938;2023-07-30T09:20:07;16124.22;;;-135.29
15453;BMP280;7827;53.594;9.938;2023-07-30T09:22:36;15877.81;;;-135.29
15453;BMP280;7827;53.594;9.938;2023-07-30T09:25:08;15877.81;;;-135.29
15453;BMP280;7827;53.594;9.938;2023-07-30T09:27:36;15877.81;;;-135.29
15453;BMP280;7827;53.594;9.938;2023-07-30T09:30:06;16124.22;;;-135.29
15453;BMP280;7827;53.594;9.938;2023-07-30T09:32:35;15877.81;;;-135.29
15453;BMP280;7827;53.594;9.938;2023-07-30T09:35:06;15877.81;;;-135.29
15453;BMP280;7827;53.594;9.938;2023-07-30T09:37:37;17722.47;;;-135.29
15453;BMP280;7827;53.594;9.938;2023-07-30T09:40:08;18795.56;;;-135.29
15453;BMP280;7827;53.594;9.938;2023-07-30T09:42:37;18930.47;;;-135.29
15453;BMP280;7827;53.594;9.938;2023-07-30T09:45:16;19277.34;;;-135.29
15453;BMP280;7827;53.594;9.938;2023-07-30T09:47:48;19668.59;;;-135.29
15453;BMP280;7827;53.594;9.938;2023-07-30T09:50:19;19745.72;;;-135.29
15453;BMP280;7827;53.594;9.938;2023-07-30T09:52:49;20065.72;;;-135.29
15453;BMP280;7827;53.594;9.938;2023-07-30T09:55:17;20127.41;;;-135.29
15453;BMP280;7827;53.594;9.938;2023-07-30T09:57:47;20202.59;;;-135.29
15453;BMP280;7827;53.594;9.938;2023-07-30T10:00:15;19805.47;;;-135.29
15453;BMP280;7827;53.594;9.938;2023-07-30T10:02:47;18990.19;;;-135.29
15453;BMP280;7827;53.594;9.938;2023-07-30T10:05:20;18146.28;;;-135.29
15453;BMP280;7827;53.594;9.938;2023-07-30T10:08:05;17630.03;;;-135.29
15453;BMP280;7827;53.594;9.938;2023-07-30T10:10:35;18275.34;;;-135.29
15453;BMP280;7827;53.594;9.938;2023-07-30T10:13:07;17603.06;;;-135.29
15453;BMP280;7827;53.594;9.938;2023-07-30T10:15:38;17641.59;;;-135.29
15453;BMP280;7827;53.594;9.938;2023-07-30T10:18:06;17356.53;;;-135.29
15453;BMP280;7827;53.594;9.938;2023-07-30T10:20:38;16903.97;;;-135.29
15453;BMP280;7827;53.594;9.938;2023-07-30T10:23:07;18186.72;;;-135.29
15453;BMP280;7827;53.594;9.938;2023-07-30T10:25:44;18703.06;;;-135.29
15453;BMP280;7827;53.594;9.938;2023-07-30T10:28:27;19273.50;;;-135.29
15453;BMP280;7827;53.594;9.938;2023-07-30T10:31:04;18664.53;;;-135.29
15453;BMP280;7827;53.594;9.938;2023-07-30T10:33:47;18040.31;;;-135.29
15453;BMP280;7827;53.594;9.938;2023-07-30T10:36:30;17901.63;;;-135.29
15453;BMP280;7827;53.594;9.938;2023-07-30T10:39:12;17470.16;;;-135.29
15453;BMP280;7827;53.594;9.938;2023-07-30T10:41:43;17110.03;;;-135.29
15453;BMP280;7827;53.594;9.938;2023-07-30T10:44:23;17110.03;;;-135.29
15453;BMP280;7827;53.594;9.938;2023-07-30T10:46:53;16863.53;;;-135.29
15453;BMP280;7827;53.594;9.938;2023-07-30T10:49:23;16617.06;;;-135.29
15453;BMP280;7827;53.594;9.938;2023-07-30T10:51:54;16863.53;;;-135.29
15453;BMP280;7827;53.594;9.938;2023-07-30T10:54:24;17387.34;;;-135.29
15453;BMP280;7827;53.594;9.938;2023-07-30T10:56:53;17110.03;;;-135.29
15453;BMP280;7827;53.594;9.938;2023-07-30T10:59:23;17470.16;;;-135.29
15453;BMP280;7827;53.594;9.938;2023-07-30T11:01:53;17466.31;;;-135.29
15453;BMP280;7827;53.594;9.938;2023-07-30T11:04:21;17356.53;;;-135.29
15453;BMP280;7827;53.594;9.938;2023-07-30T11:06:52;17628.09;;;-135.29
15453;BMP280;7827;53.594;9.938;2023-07-30T11:09:23;18308.09;;;-135.29
15453;BMP280;7827;53.594;9.938;2023-07-30T11:11:54;18639.50;;;-135.29
15453;BMP280;7827;53.594;9.938;2023-07-30T11:14:25;18325.44;;;-135.29
15453;BMP280;7827;53.594;9.938;2023-07-30T11:16:56;18082.69;;;-135.29
15453;BMP280;7827;53.594;9.938;2023-07-30T11:19:26;18599.03;;;-135.29
15453;BMP280;7827;53.594;9.938;2023-07-30T11:21:57;18144.34;;;-135.29
15453;BMP280;7827;53.594;9.938;2023-07-30T11:24:34;17110.03;;;-135.29
15453;BMP280;7827;53.594;9.938;2023-07-30T11:27:03;15877.81;;;-135.29
15453;BMP280;7827;53.594;9.938;2023-07-30T11:29:32;16370.63;;;-135.29
15453;BMP280;7827;53.594;9.938;2023-07-30T11:32:00;16124.22;;;-135.29
15453;BMP280;7827;53.594;9.938;2023-07-30T11:34:31;15138.78;;;-135.29
15453;BMP280;7827;53.594;9.938;2023-07-30T11:37:05;15138.78;;;-135.29
15453;BMP280;7827;53.594;9.938;2023-07-30T11:39:34;15138.78;;;-135.29
15453;BMP280;7827;53.594;9.938;2023-07-30T11:42:03;14646.19;;;-135.29
15453;BMP280;7827;53.594;9.938;2023-07-30T11:44:33;14153.69;;;-135.29
15453;BMP280;7827;53.594;9.938;2023-07-30T11:47:02;13661.28;;;-135.29
15453;BMP280;7827;53.594;9.938;2023-07-30T11:49:31;13168.94;;;-135.29
15453;BMP280;7827;53.594;9.938;2023-07-30T11:52:08;13415.09;;;-135.29
15453;BMP280;7827;53.594;9.938;2023-07-30T11:54:37;13168.94;;;-135.29
15453;BMP280;7827;53.594;9.938;2023-07-30T11:57:06;12922.81;;;-135.29
15453;BMP280;7827;53.594;9.938;2023-07-30T11:59:35;12676.72;;;-135.29
15453;BMP280;7827;53.594;9.938;2023-07-30T12:02:04;12430.63;;;-135.29
15453;BMP280;7827;53.594;9.938;2023-07-30T12:04:43;12676.72;;;-135.29
15453;BMP280;7827;53.594;9.938;2023-07-30T12:07:24;13168.94;;;-135.29
15453;BMP280;7827;53.594;9.938;2023-07-30T12:09:53;13661.28;;;-135.29
15453;BMP280;7827;53.594;9.938;2023-07-30T12:12:25;13415.09;;;-135.29
15453;BMP280;7827;53.594;9.938;2023-07-30T12:14:55;12922.81;;;-135.29
15453;BMP280;7827;53.594;9.938;2023-07-30T12:17:23;13168.94;;;-135.29
15453;BMP280;7827;53.594;9.938;2023-07-30T12:19:51;13415.09;;;-135.29
15453;BMP280;7827;53.594;9.938;2023-07-30T12:22:20;12922.81;;;-135.29
15453;BMP280;7827;53.594;9.938;2023-07-30T12:24:49;13168.94;;;-135.29
15453;BMP280;7827;53.594;9.938;2023-07-30T12:27:18;12676.72;;;-135.29
15453;BMP280;7827;53.594;9.938;2023-07-30T12:29:47;12430.63;;;-135.29
15453;BMP280;7827;53.594;9.938;2023-07-30T12:32:15;11938.53;;;-135.29
15453;BMP280;7827;53.594;9.938;2023-07-30T12:34:43;12184.56;;;-135.29
15453;BMP280;7827;53.594;9.938;2023-07-30T12:37:12;12430.63;;;-135.29
15453;BMP280;7827;53.594;9.938;2023-07-30T12:39:40;13661.28;;;-135.29
15453;BMP280;7827;53.594;9.938;2023-07-30T12:42:10;13907.47;;;-135.29
15453;BMP280;7827;53.594;9.938;2023-07-30T12:44:38;14153.69;;;-135.29
15453;BMP280;7827;53.594;9.938;2023-07-30T12:47:06;13661.28;;;-135.29
15453;BMP280;7827;53.594;9.938;2023-07-30T12:49:35;14646.19;;;-135.29
15453;BMP280;7827;53.594;9.938;2023-07-30T12:52:04;14646.19;;;-135.29
15453;BMP280;7827;53.594;9.938;2023-07-30T12:54:33;14646.19;;;-135.29
15453;BMP280;7827;53.594;9.938;2023-07-30T12:57:03;15631.44;;;-135.29
15453;BMP280;7827;53.594;9.938;2023-07-30T12:59:33;16124.22;;;-135.29
15453;BMP280;7827;53.594;9.938;2023-07-30T13:02:03;16863.53;;;-135.29
15453;BMP280;7827;53.594;9.938;2023-07-30T13:04:32;17208.25;;;-135.29
15453;BMP280;7827;53.594;9.938;2023-07-30T13:07:00;17955.56;;;-135.29
15453;BMP280;7827;53.594;9.938;2023-07-30T13:09:29;18333.16;;;-135.29
15453;BMP280;7827;53.594;9.938;2023-07-30T13:11:57;20439.72;;;-135.29
15453;BMP280;7827;53.594;9.938;2023-07-30T13:14:25;23298.63;;;-135.29
15453;BMP280;7827;53.594;9.938;2023-07-30T13:16:55;26056.19;;;-135.29
15453;BMP280;7827;53.594;9.938;2023-07-30T13:19:23;27066.81;;;-135.29
15453;BMP280;7827;53.594;9.938;2023-07-30T13:21:52;27646.69;;;-135.29
15453;BMP280;7827;53.594;9.938;2023-07-30T13:24:20;27704.69;;;-135.29
15453;BMP280;7827;53.594;9.938;2023-07-30T13:26:48;27894.16;;;-135.29
15453;BMP280;7827;53.594;9.938;2023-07-30T13:29:16;27368.34;;;-135.29
15453;BMP280;7827;53.594;9.938;2023-07-30T13:31:45;27573.25;;;-135.29
15453;BMP280;7827;53.594;9.938;2023-07-30T13:34:14;27886.41;;;-135.29
15453;BMP280;7827;53.594;9.938;2023-07-30T13:36:43;27791.69;;;-135.29
15453;BMP280;7827;53.594;9.938;2023-07-30T13:39:11;27503.66;;;-135.29
15453;BMP280;7827;53.594;9.938;2023-07-30T13:41:39;27314.22;;;-135.29
15453;BMP280;7827;53.594;9.938;2023-07-30T13:44:08;27387.66;;;-135.29
15453;BMP280;7827;53.594;9.938;2023-07-30T13:46:38;27144.13;;;-135.29
15453;BMP280;7827;53.594;9.938;2023-07-30T13:49:07;26869.69;;;-135.29
15453;BMP280;7827;53.594;9.938;2023-07-30T13:51:37;26918.00;;;-135.29
15453;BMP280;7827;53.594;9.938;2023-07-30T13:54:06;26699.63;;;-135.29
15453;BMP280;7827;53.594;9.938;2023-07-30T13:56:35;26460.00;;;-135.29
15453;BMP280;7827;53.594;9.938;2023-07-30T13:59:05;26537.31;;;-135.29
15453;BMP280;7827;53.594;9.938;2023-07-30T14:01:34;26678.38;;;-135.29
15453;BMP280;7827;53.594;9.938;2023-07-30T14:04:03;26402.03;;;-135.29
15453;BMP280;7827;53.594;9.938;2023-07-30T14:06:31;26042.66;;;-135.29
15453;BMP280;7827;53.594;9.938;2023-07-30T14:09:01;26121.88;;;-135.29